Curtis, NE (69025)

11:45 PM CDT on July 06, 2015 (GMT -0500)
McCook Municipal | | Change Station
CLOSE
Current Station
Airport
Location: McCook,
Elevation: 2579 ft
Nearby Weather Stations

Elev 2579 ft 40.20 °N, 100.59 °W | Updated 52 minutes ago

Partly Cloudy
Partly Cloudy
62 °F
Feels Like 62 °F
N
10
Wind Variable Wind from North

Today
High -- | Low -- °F
--% Chance of Precip.
Yesterday
High -- | Low -- °F
Precip. -- in
6:17 AM 9:15 PM
Waning Gibbous, 69% visible
Pressure 30.13 in
Visibility 5.0 miles
Clouds Clear
Dew Point 55 °F
Humidity 78%
Rainfall 0.01 in
Snow Depth Not available.
UV 0 out of 12
Pollen 1.90 out of 12
Air Quality Not available.
Flu Activity Not available.
METAR KMCK 070353Z AUTO 01009KT 5SM HZ CLR 17/13 A3017 RMK AO2 SLP202 T01670128

More Conditions Fewer Conditions

Pressure 30.13 in
Visibility 5.0 miles
Clouds Clear
Dew Point 55 °F
Humidity 78%
Rainfall 0.01 in
Snow Depth Not available.
UV 0 out of 12
Pollen 1.90 out of 12
Air Quality Not available.
Flu Activity Not available.
METAR KMCK 070353Z AUTO 01009KT 5SM HZ CLR 17/13 A3017 RMK AO2 SLP202 T01670128

More Conditions Fewer Conditions

10-Day Weather Forecast

×

Almanac

Astronomy

Jul. 06, 2015 Rise Set
Actual Time
Civil Twilight
Nautical Twilight
Astronomical Twilight
Moon
Length of Visible Light
Length of Day
Tomorrow will be .
, % of the Moon is Illuminated

Today's Extremes

State Highs State Lows

Community

WunderPhotos

Upload Photos

1,835,728 photos uploaded!

WunderBlogs® & News

Nearby

Air Quality

  Air Quality AQ Index Pollutant
Not available.

Snow Depth

Station Depth Elevation

Earthquake Activity

City Distance Mag. Time & Date
Minimum magnitude displayed is 2.5.

Coastal Water Temperatures

Place Temperature

Stations

Nearby Weather Stations

Station Location Temp. Windchill Dew Point Humidity Wind Precip. Elev Updated Type